sensor_id;sensor_type;location;lat;lon;timestamp;P1;durP1;ratioP1;P2;durP2;ratioP2
39888;SDS011;25563;50.844;4.308;2023-07-09T00:00:15;15.65;;;11.43;;
39888;SDS011;25563;50.844;4.308;2023-07-09T00:02:44;13.70;;;9.88;;
39888;SDS011;25563;50.844;4.308;2023-07-09T00:05:14;16.05;;;10.25;;
39888;SDS011;25563;50.844;4.308;2023-07-09T00:07:42;11.73;;;10.60;;
39888;SDS011;25563;50.844;4.308;2023-07-09T00:10:15;10.80;;;10.00;;
39888;SDS011;25563;50.844;4.308;2023-07-09T00:12:43;11.82;;;10.02;;
39888;SDS011;25563;50.844;4.308;2023-07-09T00:15:12;11.35;;;9.98;;
39888;SDS011;25563;50.844;4.308;2023-07-09T00:17:41;11.15;;;10.13;;
39888;SDS011;25563;50.844;4.308;2023-07-09T00:20:13;11.00;;;9.82;;
39888;SDS011;25563;50.844;4.308;2023-07-09T00:22:41;16.48;;;10.43;;
39888;SDS011;25563;50.844;4.308;2023-07-09T00:25:13;13.68;;;9.82;;
39888;SDS011;25563;50.844;4.308;2023-07-09T00:27:41;21.83;;;14.27;;
39888;SDS011;25563;50.844;4.308;2023-07-09T00:30:13;19.13;;;12.45;;
39888;SDS011;25563;50.844;4.308;2023-07-09T00:32:45;15.95;;;11.88;;
39888;SDS011;25563;50.844;4.308;2023-07-09T00:35:11;11.73;;;10.50;;
39888;SDS011;25563;50.844;4.308;2023-07-09T00:37:41;16.52;;;10.05;;
39888;SDS011;25563;50.844;4.308;2023-07-09T00:40:15;11.57;;;10.27;;
39888;SDS011;25563;50.844;4.308;2023-07-09T00:42:59;10.65;;;9.65;;
39888;SDS011;25563;50.844;4.308;2023-07-09T00:45:26;14.32;;;10.23;;
39888;SDS011;25563;50.844;4.308;2023-07-09T00:48:00;12.93;;;9.68;;
39888;SDS011;25563;50.844;4.308;2023-07-09T00:53:27;10.60;;;9.48;;
39888;SDS011;25563;50.844;4.308;2023-07-09T00:56:02;13.20;;;9.25;;
39888;SDS011;25563;50.844;4.308;2023-07-09T00:58:32;11.23;;;9.77;;
39888;SDS011;25563;50.844;4.308;2023-07-09T01:01:05;13.05;;;8.77;;
39888;SDS011;25563;50.844;4.308;2023-07-09T01:03:40;9.93;;;8.85;;
39888;SDS011;25563;50.844;4.308;2023-07-09T01:06:10;12.27;;;8.73;;
39888;SDS011;25563;50.844;4.308;2023-07-09T01:08:38;13.52;;;8.32;;
39888;SDS011;25563;50.844;4.308;2023-07-09T01:11:18;8.27;;;7.68;;
39888;SDS011;25563;50.844;4.308;2023-07-09T01:16:16;9.32;;;7.72;;
39888;SDS011;25563;50.844;4.308;2023-07-09T01:18:42;9.05;;;8.18;;
39888;SDS011;25563;50.844;4.308;2023-07-09T01:21:09;9.68;;;8.10;;
39888;SDS011;25563;50.844;4.308;2023-07-09T01:23:43;10.65;;;7.90;;
39888;SDS011;25563;50.844;4.308;2023-07-09T01:26:11;9.07;;;8.18;;
39888;SDS011;25563;50.844;4.308;2023-07-09T01:28:40;8.27;;;7.18;;
39888;SDS011;25563;50.844;4.308;2023-07-09T01:31:09;8.52;;;7.68;;
39888;SDS011;25563;50.844;4.308;2023-07-09T01:33:36;8.02;;;6.75;;
39888;SDS011;25563;50.844;4.308;2023-07-09T01:36:05;7.78;;;7.03;;
39888;SDS011;25563;50.844;4.308;2023-07-09T01:38:32;8.73;;;8.05;;
39888;SDS011;25563;50.844;4.308;2023-07-09T01:40:58;7.85;;;7.07;;
39888;SDS011;25563;50.844;4.308;2023-07-09T01:43:25;8.07;;;6.93;;
39888;SDS011;25563;50.844;4.308;2023-07-09T01:45:52;11.27;;;6.28;;
39888;SDS011;25563;50.844;4.308;2023-07-09T01:48:18;7.00;;;6.40;;
39888;SDS011;25563;50.844;4.308;2023-07-09T01:50:45;9.05;;;6.55;;
39888;SDS011;25563;50.844;4.308;2023-07-09T01:53:14;8.07;;;6.35;;
39888;SDS011;25563;50.844;4.308;2023-07-09T01:55:43;7.77;;;6.40;;
39888;SDS011;25563;50.844;4.308;2023-07-09T01:58:09;6.47;;;5.88;;
39888;SDS011;25563;50.844;4.308;2023-07-09T02:00:36;8.02;;;5.53;;
39888;SDS011;25563;50.844;4.308;2023-07-09T02:03:06;5.35;;;4.88;;
39888;SDS011;25563;50.844;4.308;2023-07-09T02:05:32;14.25;;;6.22;;
39888;SDS011;25563;50.844;4.308;2023-07-09T02:07:58;6.63;;;6.03;;
39888;SDS011;25563;50.844;4.308;2023-07-09T02:10:25;6.05;;;4.60;;
39888;SDS011;25563;50.844;4.308;2023-07-09T02:12:51;7.18;;;4.80;;
39888;SDS011;25563;50.844;4.308;2023-07-09T02:15:17;10.00;;;4.88;;
39888;SDS011;25563;50.844;4.308;2023-07-09T02:17:43;10.85;;;4.80;;
39888;SDS011;25563;50.844;4.308;2023-07-09T02:20:09;5.35;;;4.85;;
39888;SDS011;25563;50.844;4.308;2023-07-09T02:22:36;8.68;;;4.13;;
39888;SDS011;25563;50.844;4.308;2023-07-09T02:25:03;11.02;;;4.47;;
39888;SDS011;25563;50.844;4.308;2023-07-09T02:27:30;6.28;;;4.60;;
39888;SDS011;25563;50.844;4.308;2023-07-09T02:29:57;5.97;;;3.35;;
39888;SDS011;25563;50.844;4.308;2023-07-09T02:32:24;3.75;;;3.45;;
39888;SDS011;25563;50.844;4.308;2023-07-09T02:34:54;7.63;;;4.20;;
39888;SDS011;25563;50.844;4.308;2023-07-09T02:37:23;4.13;;;3.60;;
39888;SDS011;25563;50.844;4.308;2023-07-09T02:39:51;7.13;;;3.42;;
39888;SDS011;25563;50.844;4.308;2023-07-09T02:42:18;4.15;;;3.65;;
39888;SDS011;25563;50.844;4.308;2023-07-09T02:44:45;4.13;;;3.40;;
39888;SDS011;25563;50.844;4.308;2023-07-09T02:47:12;5.03;;;3.90;;
39888;SDS011;25563;50.844;4.308;2023-07-09T02:49:38;7.85;;;4.15;;
39888;SDS011;25563;50.844;4.308;2023-07-09T02:52:04;3.83;;;3.38;;
39888;SDS011;25563;50.844;4.308;2023-07-09T02:54:31;8.23;;;4.18;;
39888;SDS011;25563;50.844;4.308;2023-07-09T02:56:57;5.93;;;3.92;;
39888;SDS011;25563;50.844;4.308;2023-07-09T02:59:23;5.82;;;4.15;;
39888;SDS011;25563;50.844;4.308;2023-07-09T03:01:52;6.55;;;3.97;;
39888;SDS011;25563;50.844;4.308;2023-07-09T03:04:19;5.28;;;4.18;;
39888;SDS011;25563;50.844;4.308;2023-07-09T03:06:47;5.55;;;4.45;;
39888;SDS011;25563;50.844;4.308;2023-07-09T03:09:13;3.92;;;3.60;;
39888;SDS011;25563;50.844;4.308;2023-07-09T03:11:39;6.80;;;4.00;;
39888;SDS011;25563;50.844;4.308;2023-07-09T03:14:05;4.93;;;3.92;;
39888;SDS011;25563;50.844;4.308;2023-07-09T03:16:32;4.32;;;3.92;;
39888;SDS011;25563;50.844;4.308;2023-07-09T03:18:58;4.65;;;4.18;;
39888;SDS011;25563;50.844;4.308;2023-07-09T03:21:25;5.78;;;4.18;;
39888;SDS011;25563;50.844;4.308;2023-07-09T03:23:52;7.85;;;4.60;;
39888;SDS011;25563;50.844;4.308;2023-07-09T03:26:19;10.73;;;4.35;;
39888;SDS011;25563;50.844;4.308;2023-07-09T03:28:45;5.57;;;4.50;;
39888;SDS011;25563;50.844;4.308;2023-07-09T03:31:11;4.72;;;4.30;;
39888;SDS011;25563;50.844;4.308;2023-07-09T03:33:37;12.52;;;4.80;;
39888;SDS011;25563;50.844;4.308;2023-07-09T03:36:04;6.07;;;4.85;;
39888;SDS011;25563;50.844;4.308;2023-07-09T03:38:31;7.30;;;4.72;;
39888;SDS011;25563;50.844;4.308;2023-07-09T03:40:57;5.35;;;4.70;;
39888;SDS011;25563;50.844;4.308;2023-07-09T03:43:23;4.40;;;3.92;;
39888;SDS011;25563;50.844;4.308;2023-07-09T03:45:50;15.20;;;4.82;;
39888;SDS011;25563;50.844;4.308;2023-07-09T03:48:17;10.20;;;4.32;;
39888;SDS011;25563;50.844;4.308;2023-07-09T03:50:45;6.20;;;4.47;;
39888;SDS011;25563;50.844;4.308;2023-07-09T03:53:11;11.90;;;4.57;;
39888;SDS011;25563;50.844;4.308;2023-07-09T03:55:38;7.07;;;5.32;;
39888;SDS011;25563;50.844;4.308;2023-07-09T03:58:04;5.43;;;4.88;;
39888;SDS011;25563;50.844;4.308;2023-07-09T04:00:29;6.88;;;5.32;;
39888;SDS011;25563;50.844;4.308;2023-07-09T04:02:56;6.22;;;5.30;;
39888;SDS011;25563;50.844;4.308;2023-07-09T04:05:22;7.20;;;5.70;;
39888;SDS011;25563;50.844;4.308;2023-07-09T04:07:49;5.95;;;5.32;;
39888;SDS011;25563;50.844;4.308;2023-07-09T04:10:15;8.40;;;5.57;;
39888;SDS011;25563;50.844;4.308;2023-07-09T04:12:41;7.53;;;5.50;;
39888;SDS011;25563;50.844;4.308;2023-07-09T04:15:06;8.38;;;5.07;;
39888;SDS011;25563;50.844;4.308;2023-07-09T04:17:34;8.50;;;5.07;;
39888;SDS011;25563;50.844;4.308;2023-07-09T04:20:00;7.90;;;6.25;;
39888;SDS011;25563;50.844;4.308;2023-07-09T04:22:30;6.35;;;5.75;;
39888;SDS011;25563;50.844;4.308;2023-07-09T04:24:57;8.43;;;5.95;;
39888;SDS011;25563;50.844;4.308;2023-07-09T04:27:26;6.20;;;4.82;;
39888;SDS011;25563;50.844;4.308;2023-07-09T04:29:53;7.97;;;5.70;;
39888;SDS011;25563;50.844;4.308;2023-07-09T04:32:19;5.53;;;5.05;;
39888;SDS011;25563;50.844;4.308;2023-07-09T04:34:46;11.13;;;5.63;;
39888;SDS011;25563;50.844;4.308;2023-07-09T04:37:12;6.72;;;6.03;;
39888;SDS011;25563;50.844;4.308;2023-07-09T04:39:39;7.13;;;5.53;;
39888;SDS011;25563;50.844;4.308;2023-07-09T04:42:06;12.10;;;5.60;;
39888;SDS011;25563;50.844;4.308;2023-07-09T04:44:35;5.65;;;5.00;;
39888;SDS011;25563;50.844;4.308;2023-07-09T04:47:01;7.00;;;5.78;;
39888;SDS011;25563;50.844;4.308;2023-07-09T04:49:27;6.45;;;5.47;;
39888;SDS011;25563;50.844;4.308;2023-07-09T04:51:53;8.73;;;5.43;;
39888;SDS011;25563;50.844;4.308;2023-07-09T04:54:22;7.68;;;6.18;;
39888;SDS011;25563;50.844;4.308;2023-07-09T04:56:49;9.48;;;6.25;;
39888;SDS011;25563;50.844;4.308;2023-07-09T04:59:15;11.23;;;5.65;;
39888;SDS011;25563;50.844;4.308;2023-07-09T05:01:40;12.43;;;6.68;;
39888;SDS011;25563;50.844;4.308;2023-07-09T05:04:06;7.53;;;6.75;;
39888;SDS011;25563;50.844;4.308;2023-07-09T05:06:32;9.23;;;6.55;;
39888;SDS011;25563;50.844;4.308;2023-07-09T05:08:59;10.18;;;5.45;;
39888;SDS011;25563;50.844;4.308;2023-07-09T05:11:25;7.93;;;5.50;;
39888;SDS011;25563;50.844;4.308;2023-07-09T05:13:51;6.43;;;5.55;;
39888;SDS011;25563;50.844;4.308;2023-07-09T05:16:17;8.18;;;6.07;;
39888;SDS011;25563;50.844;4.308;2023-07-09T05:18:44;6.90;;;6.15;;
39888;SDS011;25563;50.844;4.308;2023-07-09T05:21:10;10.10;;;6.80;;
39888;SDS011;25563;50.844;4.308;2023-07-09T05:23:36;7.40;;;6.70;;
39888;SDS011;25563;50.844;4.308;2023-07-09T05:26:02;6.75;;;6.03;;
39888;SDS011;25563;50.844;4.308;2023-07-09T05:28:29;13.40;;;5.93;;
39888;SDS011;25563;50.844;4.308;2023-07-09T05:30:56;11.75;;;6.32;;
39888;SDS011;25563;50.844;4.308;2023-07-09T05:33:22;8.30;;;6.50;;
39888;SDS011;25563;50.844;4.308;2023-07-09T05:35:48;9.13;;;6.22;;
39888;SDS011;25563;50.844;4.308;2023-07-09T05:38:15;7.30;;;6.05;;
39888;SDS011;25563;50.844;4.308;2023-07-09T05:40:42;6.93;;;4.95;;
39888;SDS011;25563;50.844;4.308;2023-07-09T05:43:09;9.43;;;5.80;;
39888;SDS011;25563;50.844;4.308;2023-07-09T05:45:36;11.10;;;6.20;;
39888;SDS011;25563;50.844;4.308;2023-07-09T05:48:04;5.93;;;5.43;;
39888;SDS011;25563;50.844;4.308;2023-07-09T05:50:32;11.35;;;6.20;;
39888;SDS011;25563;50.844;4.308;2023-07-09T05:52:59;13.48;;;6.50;;
39888;SDS011;25563;50.844;4.308;2023-07-09T05:55:26;8.10;;;6.50;;
39888;SDS011;25563;50.844;4.308;2023-07-09T05:57:52;7.20;;;6.45;;
39888;SDS011;25563;50.844;4.308;2023-07-09T06:00:18;10.18;;;6.68;;
39888;SDS011;25563;50.844;4.308;2023-07-09T06:02:45;7.45;;;6.63;;
39888;SDS011;25563;50.844;4.308;2023-07-09T06:05:10;8.98;;;6.65;;
39888;SDS011;25563;50.844;4.308;2023-07-09T06:07:39;8.73;;;7.22;;
39888;SDS011;25563;50.844;4.308;2023-07-09T06:10:06;11.55;;;7.43;;
39888;SDS011;25563;50.844;4.308;2023-07-09T06:12:34;10.13;;;7.28;;
39888;SDS011;25563;50.844;4.308;2023-07-09T06:15:00;7.07;;;6.32;;
39888;SDS011;25563;50.844;4.308;2023-07-09T06:17:26;9.68;;;7.50;;
39888;SDS011;25563;50.844;4.308;2023-07-09T06:19:52;10.27;;;7.55;;
39888;SDS011;25563;50.844;4.308;2023-07-09T06:22:17;9.52;;;8.60;;
39888;SDS011;25563;50.844;4.308;2023-07-09T06:24:44;12.48;;;8.98;;
39888;SDS011;25563;50.844;4.308;2023-07-09T06:27:10;11.65;;;8.60;;
39888;SDS011;25563;50.844;4.308;2023-07-09T06:29:36;11.23;;;9.75;;
39888;SDS011;25563;50.844;4.308;2023-07-09T06:32:02;10.63;;;9.73;;
39888;SDS011;25563;50.844;4.308;2023-07-09T06:34:30;17.52;;;9.40;;
39888;SDS011;25563;50.844;4.308;2023-07-09T06:36:56;10.55;;;9.45;;
39888;SDS011;25563;50.844;4.308;2023-07-09T06:39:22;17.00;;;10.13;;
39888;SDS011;25563;50.844;4.308;2023-07-09T06:41:48;13.95;;;10.95;;
39888;SDS011;25563;50.844;4.308;2023-07-09T06:44:14;12.65;;;11.60;;
39888;SDS011;25563;50.844;4.308;2023-07-09T06:46:40;22.10;;;15.82;;
39888;SDS011;25563;50.844;4.308;2023-07-09T06:49:06;18.75;;;14.32;;
39888;SDS011;25563;50.844;4.308;2023-07-09T06:51:31;22.50;;;14.82;;
39888;SDS011;25563;50.844;4.308;2023-07-09T06:53:57;16.58;;;14.82;;
39888;SDS011;25563;50.844;4.308;2023-07-09T06:56:24;19.80;;;16.45;;
39888;SDS011;25563;50.844;4.308;2023-07-09T06:58:50;23.35;;;18.02;;
39888;SDS011;25563;50.844;4.308;2023-07-09T07:01:16;23.30;;;18.88;;
39888;SDS011;25563;50.844;4.308;2023-07-09T07:03:41;22.65;;;18.13;;
39888;SDS011;25563;50.844;4.308;2023-07-09T07:06:07;24.02;;;19.05;;
39888;SDS011;25563;50.844;4.308;2023-07-09T07:08:34;25.25;;;20.00;;
39888;SDS011;25563;50.844;4.308;2023-07-09T07:11:00;23.70;;;19.52;;
39888;SDS011;25563;50.844;4.308;2023-07-09T07:13:29;23.00;;;20.55;;
39888;SDS011;25563;50.844;4.308;2023-07-09T07:16:00;39.10;;;22.75;;
39888;SDS011;25563;50.844;4.308;2023-07-09T07:18:27;34.40;;;26.60;;
39888;SDS011;25563;50.844;4.308;2023-07-09T07:20:52;41.88;;;29.00;;
39888;SDS011;25563;50.844;4.308;2023-07-09T07:23:18;48.63;;;31.95;;
39888;SDS011;25563;50.844;4.308;2023-07-09T07:25:45;40.58;;;29.75;;
39888;SDS011;25563;50.844;4.308;2023-07-09T07:28:11;37.25;;;27.60;;
39888;SDS011;25563;50.844;4.308;2023-07-09T07:30:37;37.50;;;29.23;;
39888;SDS011;25563;50.844;4.308;2023-07-09T07:33:03;48.83;;;32.20;;
39888;SDS011;25563;50.844;4.308;2023-07-09T07:35:28;39.97;;;30.50;;
39888;SDS011;25563;50.844;4.308;2023-07-09T07:37:54;43.42;;;30.27;;
39888;SDS011;25563;50.844;4.308;2023-07-09T07:40:20;40.47;;;29.38;;
39888;SDS011;25563;50.844;4.308;2023-07-09T07:42:46;45.10;;;31.63;;
39888;SDS011;25563;50.844;4.308;2023-07-09T07:45:12;34.40;;;29.92;;
39888;SDS011;25563;50.844;4.308;2023-07-09T07:47:38;49.50;;;32.60;;
39888;SDS011;25563;50.844;4.308;2023-07-09T07:50:05;43.67;;;33.13;;
39888;SDS011;25563;50.844;4.308;2023-07-09T07:52:31;43.08;;;31.25;;
39888;SDS011;25563;50.844;4.308;2023-07-09T07:54:58;40.97;;;32.00;;
39888;SDS011;25563;50.844;4.308;2023-07-09T07:57:24;45.00;;;31.88;;
39888;SDS011;25563;50.844;4.308;2023-07-09T07:59:51;46.67;;;33.83;;
39888;SDS011;25563;50.844;4.308;2023-07-09T08:02:18;47.38;;;29.92;;
39888;SDS011;25563;50.844;4.308;2023-07-09T08:04:44;36.58;;;27.63;;
39888;SDS011;25563;50.844;4.308;2023-07-09T08:07:10;40.03;;;27.70;;
39888;SDS011;25563;50.844;4.308;2023-07-09T08:09:39;32.30;;;26.60;;
39888;SDS011;25563;50.844;4.308;2023-07-09T08:12:04;35.15;;;24.38;;
39888;SDS011;25563;50.844;4.308;2023-07-09T08:14:38;33.00;;;24.70;;
39888;SDS011;25563;50.844;4.308;2023-07-09T08:17:06;31.65;;;24.67;;
39888;SDS011;25563;50.844;4.308;2023-07-09T08:19:53;32.08;;;24.42;;
39888;SDS011;25563;50.844;4.308;2023-07-09T08:22:19;32.10;;;23.73;;
39888;SDS011;25563;50.844;4.308;2023-07-09T08:24:47;25.52;;;22.85;;
39888;SDS011;25563;50.844;4.308;2023-07-09T08:27:13;32.25;;;23.95;;
39888;SDS011;25563;50.844;4.308;2023-07-09T08:29:39;31.25;;;23.40;;
39888;SDS011;25563;50.844;4.308;2023-07-09T08:32:06;32.28;;;23.52;;
39888;SDS011;25563;50.844;4.308;2023-07-09T08:34:34;33.35;;;23.98;;
39888;SDS011;25563;50.844;4.308;2023-07-09T08:37:00;35.95;;;22.42;;
39888;SDS011;25563;50.844;4.308;2023-07-09T08:39:27;32.17;;;22.08;;
39888;SDS011;25563;50.844;4.308;2023-07-09T08:41:54;25.50;;;22.70;;
39888;SDS011;25563;50.844;4.308;2023-07-09T08:47:06;24.83;;;20.42;;
39888;SDS011;25563;50.844;4.308;2023-07-09T08:49:35;26.60;;;23.48;;
39888;SDS011;25563;50.844;4.308;2023-07-09T08:55:03;24.70;;;20.05;;
39888;SDS011;25563;50.844;4.308;2023-07-09T08:57:50;28.95;;;22.38;;
39888;SDS011;25563;50.844;4.308;2023-07-09T09:03:20;30.58;;;22.67;;
39888;SDS011;25563;50.844;4.308;2023-07-09T09:05:59;28.35;;;20.48;;
39888;SDS011;25563;50.844;4.308;2023-07-09T09:11:46;25.48;;;22.63;;
39888;SDS011;25563;50.844;4.308;2023-07-09T09:14:29;31.55;;;22.80;;
39888;SDS011;25563;50.844;4.308;2023-07-09T09:17:01;31.88;;;21.27;;
39888;SDS011;25563;50.844;4.308;2023-07-09T09:19:37;31.10;;;22.95;;
39888;SDS011;25563;50.844;4.308;2023-07-09T09:22:10;31.52;;;23.88;;
39888;SDS011;25563;50.844;4.308;2023-07-09T09:27:52;27.98;;;24.13;;
39888;SDS011;25563;50.844;4.308;2023-07-09T09:30:20;33.03;;;24.45;;
39888;SDS011;25563;50.844;4.308;2023-07-09T09:32:56;32.92;;;23.85;;
39888;SDS011;25563;50.844;4.308;2023-07-09T09:35:31;34.80;;;22.50;;
39888;SDS011;25563;50.844;4.308;2023-07-09T09:38:00;29.42;;;24.00;;
39888;SDS011;25563;50.844;4.308;2023-07-09T09:40:28;23.48;;;20.92;;
39888;SDS011;25563;50.844;4.308;2023-07-09T09:42:59;25.13;;;21.17;;
39888;SDS011;25563;50.844;4.308;2023-07-09T09:45:28;29.80;;;22.25;;
39888;SDS011;25563;50.844;4.308;2023-07-09T09:48:09;27.88;;;20.70;;
39888;SDS011;25563;50.844;4.308;2023-07-09T09:50:51;26.35;;;20.25;;
39888;SDS011;25563;50.844;4.308;2023-07-09T09:53:18;22.92;;;18.83;;
39888;SDS011;25563;50.844;4.308;2023-07-09T09:55:47;25.27;;;18.00;;
39888;SDS011;25563;50.844;4.308;2023-07-09T09:58:15;24.88;;;18.90;;
39888;SDS011;25563;50.844;4.308;2023-07-09T10:03:16;23.10;;;18.30;;
39888;SDS011;25563;50.844;4.308;2023-07-09T10:05:45;18.17;;;16.58;;
39888;SDS011;25563;50.844;4.308;2023-07-09T10:08:29;18.23;;;16.35;;
39888;SDS011;25563;50.844;4.308;2023-07-09T10:11:39;19.05;;;17.13;;
39888;SDS011;25563;50.844;4.308;2023-07-09T10:14:01;16.60;;;15.07;;
39888;SDS011;25563;50.844;4.308;2023-07-09T10:16:43;16.40;;;14.15;;
39888;SDS011;25563;50.844;4.308;2023-07-09T10:19:15;15.65;;;14.05;;
39888;SDS011;25563;50.844;4.308;2023-07-09T10:22:06;14.13;;;12.98;;
39888;SDS011;25563;50.844;4.308;2023-07-09T10:24:43;15.43;;;13.13;;
39888;SDS011;25563;50.844;4.308;2023-07-09T10:27:33;12.13;;;10.93;;
39888;SDS011;25563;50.844;4.308;2023-07-09T10:30:19;16.15;;;10.30;;
39888;SDS011;25563;50.844;4.308;2023-07-09T10:40:43;13.52;;;12.52;;
39888;SDS011;25563;50.844;4.308;2023-07-09T10:43:39;16.58;;;12.45;;
39888;SDS011;25563;50.844;4.308;2023-07-09T10:46:18;13.88;;;12.77;;
39888;SDS011;25563;50.844;4.308;2023-07-09T10:48:51;15.05;;;13.48;;
39888;SDS011;25563;50.844;4.308;2023-07-09T10:51:31;14.27;;;13.15;;
39888;SDS011;25563;50.844;4.308;2023-07-09T10:54:04;13.13;;;11.55;;
39888;SDS011;25563;50.844;4.308;2023-07-09T10:56:51;13.20;;;11.83;;
39888;SDS011;25563;50.844;4.308;2023-07-09T10:59:33;13.30;;;10.73;;
39888;SDS011;25563;50.844;4.308;2023-07-09T11:02:26;9.90;;;9.05;;
39888;SDS011;25563;50.844;4.308;2023-07-09T11:04:57;8.77;;;7.13;;
39888;SDS011;25563;50.844;4.308;2023-07-09T11:09:59;7.45;;;5.35;;
39888;SDS011;25563;50.844;4.308;2023-07-09T11:12:38;5.97;;;5.30;;
39888;SDS011;25563;50.844;4.308;2023-07-09T11:17:57;5.80;;;4.82;;
39888;SDS011;25563;50.844;4.308;2023-07-09T11:20:25;5.93;;;4.65;;
39888;SDS011;25563;50.844;4.308;2023-07-09T11:23:04;4.72;;;4.40;;
39888;SDS011;25563;50.844;4.308;2023-07-09T11:25:44;4.85;;;4.28;;
39888;SDS011;25563;50.844;4.308;2023-07-09T11:28:12;4.88;;;4.38;;
39888;SDS011;25563;50.844;4.308;2023-07-09T11:30:45;5.70;;;4.18;;
39888;SDS011;25563;50.844;4.308;2023-07-09T11:33:17;9.35;;;4.57;;
39888;SDS011;25563;50.844;4.308;2023-07-09T11:35:49;5.07;;;4.13;;
39888;SDS011;25563;50.844;4.308;2023-07-09T11:38:21;4.68;;;4.10;;
39888;SDS011;25563;50.844;4.308;2023-07-09T11:40:49;7.18;;;4.05;;
39888;SDS011;25563;50.844;4.308;2023-07-09T11:43:33;5.93;;;5.15;;
39888;SDS011;25563;50.844;4.308;2023-07-09T11:46:04;5.78;;;4.25;;
39888;SDS011;25563;50.844;4.308;2023-07-09T11:48:36;6.22;;;3.50;;
39888;SDS011;25563;50.844;4.308;2023-07-09T11:51:13;8.90;;;4.25;;
39888;SDS011;25563;50.844;4.308;2023-07-09T11:53:47;5.30;;;4.05;;
39888;SDS011;25563;50.844;4.308;2023-07-09T11:56:20;5.65;;;4.30;;
39888;SDS011;25563;50.844;4.308;2023-07-09T11:58:47;5.70;;;4.18;;
39888;SDS011;25563;50.844;4.308;2023-07-09T12:01:15;6.60;;;3.85;;
39888;SDS011;25563;50.844;4.308;2023-07-09T12:03:46;5.47;;;5.03;;
39888;SDS011;25563;50.844;4.308;2023-07-09T12:06:18;7.32;;;4.65;;
39888;SDS011;25563;50.844;4.308;2023-07-09T12:08:47;6.68;;;4.47;;
39888;SDS011;25563;50.844;4.308;2023-07-09T12:11:25;8.50;;;4.97;;
39888;SDS011;25563;50.844;4.308;2023-07-09T12:13:53;5.28;;;4.78;;
39888;SDS011;25563;50.844;4.308;2023-07-09T12:16:36;6.07;;;5.00;;
39888;SDS011;25563;50.844;4.308;2023-07-09T12:19:04;7.38;;;5.10;;
39888;SDS011;25563;50.844;4.308;2023-07-09T12:21:34;11.13;;;6.15;;
39888;SDS011;25563;50.844;4.308;2023-07-09T12:24:02;14.25;;;6.18;;
39888;SDS011;25563;50.844;4.308;2023-07-09T12:26:38;7.57;;;6.10;;
39888;SDS011;25563;50.844;4.308;2023-07-09T12:29:04;16.90;;;6.80;;
39888;SDS011;25563;50.844;4.308;2023-07-09T12:31:34;14.57;;;7.60;;
39888;SDS011;25563;50.844;4.308;2023-07-09T12:34:00;15.50;;;7.30;;
39888;SDS011;25563;50.844;4.308;2023-07-09T12:36:27;13.52;;;7.60;;
39888;SDS011;25563;50.844;4.308;2023-07-09T12:38:55;8.27;;;6.93;;
39888;SDS011;25563;50.844;4.308;2023-07-09T12:41:35;14.75;;;8.20;;
39888;SDS011;25563;50.844;4.308;2023-07-09T12:44:05;9.43;;;8.50;;
39888;SDS011;25563;50.844;4.308;2023-07-09T12:47:04;10.45;;;9.45;;
39888;SDS011;25563;50.844;4.308;2023-07-09T12:49:36;11.85;;;8.73;;
39888;SDS011;25563;50.844;4.308;2023-07-09T12:52:12;16.70;;;9.38;;
39888;SDS011;25563;50.844;4.308;2023-07-09T12:54:51;13.55;;;8.98;;
39888;SDS011;25563;50.844;4.308;2023-07-09T12:57:24;9.40;;;8.50;;
39888;SDS011;25563;50.844;4.308;2023-07-09T12:59:51;9.30;;;8.50;;
39888;SDS011;25563;50.844;4.308;2023-07-09T13:02:22;11.18;;;9.18;;
39888;SDS011;25563;50.844;4.308;2023-07-09T13:05:02;12.30;;;9.00;;
39888;SDS011;25563;50.844;4.308;2023-07-09T13:10:44;14.65;;;9.23;;
39888;SDS011;25563;50.844;4.308;2023-07-09T13:13:10;18.38;;;13.20;;
39888;SDS011;25563;50.844;4.308;2023-07-09T13:15:42;9.13;;;8.20;;
39888;SDS011;25563;50.844;4.308;2023-07-09T13:18:12;15.77;;;8.85;;
39888;SDS011;25563;50.844;4.308;2023-07-09T13:20:39;10.25;;;8.77;;
39888;SDS011;25563;50.844;4.308;2023-07-09T13:23:12;9.73;;;8.52;;
39888;SDS011;25563;50.844;4.308;2023-07-09T13:25:42;9.75;;;8.95;;
39888;SDS011;25563;50.844;4.308;2023-07-09T13:28:16;11.02;;;9.70;;
39888;SDS011;25563;50.844;4.308;2023-07-09T13:30:45;11.10;;;8.88;;
39888;SDS011;25563;50.844;4.308;2023-07-09T13:33:12;12.40;;;8.63;;
39888;SDS011;25563;50.844;4.308;2023-07-09T13:35:38;10.85;;;9.77;;
39888;SDS011;25563;50.844;4.308;2023-07-09T13:38:11;9.80;;;8.85;;
39888;SDS011;25563;50.844;4.308;2023-07-09T13:40:40;11.27;;;8.80;;
39888;SDS011;25563;50.844;4.308;2023-07-09T13:43:09;11.77;;;9.23;;
39888;SDS011;25563;50.844;4.308;2023-07-09T13:45:43;9.10;;;7.63;;
39888;SDS011;25563;50.844;4.308;2023-07-09T13:48:13;9.50;;;7.68;;
39888;SDS011;25563;50.844;4.308;2023-07-09T13:50:41;11.68;;;10.68;;
39888;SDS011;25563;50.844;4.308;2023-07-09T13:53:12;8.68;;;7.65;;
39888;SDS011;25563;50.844;4.308;2023-07-09T13:55:41;7.80;;;7.10;;
39888;SDS011;25563;50.844;4.308;2023-07-09T13:58:10;8.68;;;7.90;;
39888;SDS011;25563;50.844;4.308;2023-07-09T14:00:38;8.32;;;7.45;;
39888;SDS011;25563;50.844;4.308;2023-07-09T14:05:48;10.65;;;7.13;;
39888;SDS011;25563;50.844;4.308;2023-07-09T14:08:14;7.80;;;7.15;;
39888;SDS011;25563;50.844;4.308;2023-07-09T14:10:41;8.55;;;6.35;;
39888;SDS011;25563;50.844;4.308;2023-07-09T14:13:12;8.30;;;7.60;;
39888;SDS011;25563;50.844;4.308;2023-07-09T14:15:39;5.78;;;5.32;;
39888;SDS011;25563;50.844;4.308;2023-07-09T14:18:13;7.05;;;4.93;;
39888;SDS011;25563;50.844;4.308;2023-07-09T14:20:40;5.78;;;4.80;;
39888;SDS011;25563;50.844;4.308;2023-07-09T14:23:10;6.50;;;5.47;;
39888;SDS011;25563;50.844;4.308;2023-07-09T14:25:37;6.63;;;5.32;;
39888;SDS011;25563;50.844;4.308;2023-07-09T14:28:07;6.70;;;4.80;;
39888;SDS011;25563;50.844;4.308;2023-07-09T14:30:40;7.25;;;5.00;;
39888;SDS011;25563;50.844;4.308;2023-07-09T14:33:14;6.53;;;4.25;;
39888;SDS011;25563;50.844;4.308;2023-07-09T14:35:43;5.97;;;4.00;;
39888;SDS011;25563;50.844;4.308;2023-07-09T14:40:47;5.63;;;3.15;;
39888;SDS011;25563;50.844;4.308;2023-07-09T14:43:16;6.35;;;4.13;;
39888;SDS011;25563;50.844;4.308;2023-07-09T14:45:45;4.80;;;3.58;;
39888;SDS011;25563;50.844;4.308;2023-07-09T14:48:13;3.58;;;2.83;;
39888;SDS011;25563;50.844;4.308;2023-07-09T14:50:41;3.85;;;2.95;;
39888;SDS011;25563;50.844;4.308;2023-07-09T14:53:12;4.88;;;3.47;;
39888;SDS011;25563;50.844;4.308;2023-07-09T14:55:42;3.92;;;3.00;;
39888;SDS011;25563;50.844;4.308;2023-07-09T14:58:12;7.28;;;3.28;;
39888;SDS011;25563;50.844;4.308;2023-07-09T15:00:42;4.55;;;3.90;;
39888;SDS011;25563;50.844;4.308;2023-07-09T15:03:11;4.20;;;2.90;;
39888;SDS011;25563;50.844;4.308;2023-07-09T15:05:47;4.70;;;3.38;;
39888;SDS011;25563;50.844;4.308;2023-07-09T15:08:18;4.03;;;2.88;;
39888;SDS011;25563;50.844;4.308;2023-07-09T15:10:48;3.28;;;2.78;;
39888;SDS011;25563;50.844;4.308;2023-07-09T15:15:43;5.80;;;3.42;;
39888;SDS011;25563;50.844;4.308;2023-07-09T15:18:11;3.42;;;2.85;;
39888;SDS011;25563;50.844;4.308;2023-07-09T15:20:47;3.95;;;3.53;;
39888;SDS011;25563;50.844;4.308;2023-07-09T15:23:17;7.35;;;3.50;;
39888;SDS011;25563;50.844;4.308;2023-07-09T15:25:43;4.88;;;3.10;;
39888;SDS011;25563;50.844;4.308;2023-07-09T15:28:10;3.95;;;2.92;;
39888;SDS011;25563;50.844;4.308;2023-07-09T15:30:36;6.45;;;3.58;;
39888;SDS011;25563;50.844;4.308;2023-07-09T15:33:03;6.07;;;3.00;;
39888;SDS011;25563;50.844;4.308;2023-07-09T15:35:33;4.63;;;3.15;;
39888;SDS011;25563;50.844;4.308;2023-07-09T15:38:01;7.68;;;3.92;;